sensor_id;sensor_type;location;lat;lon;timestamp;pressure;altitude;pressure_sealevel;temperature;humidity
20160;BME280;50187;50.492;12.134;2023-07-24T00:00:03;96901.97;;;23.74;39.48
20160;BME280;50187;50.492;12.134;2023-07-24T00:02:30;96894.50;;;23.76;39.43
20160;BME280;50187;50.492;12.134;2023-07-24T00:04:56;96898.25;;;23.75;39.41
20160;BME280;50187;50.492;12.134;2023-07-24T00:07:23;96891.31;;;23.73;39.51
20160;BME280;50187;50.492;12.134;2023-07-24T00:09:51;96893.84;;;23.74;39.41
20160;BME280;50187;50.492;12.134;2023-07-24T00:12:18;96888.63;;;23.73;39.69
20160;BME280;50187;50.492;12.134;2023-07-24T00:14:44;96867.88;;;23.58;39.31
20160;BME280;50187;50.492;12.134;2023-07-24T00:17:11;96903.84;;;23.67;39.49
20160;BME280;50187;50.492;12.134;2023-07-24T00:19:37;96891.31;;;23.73;39.57
20160;BME280;50187;50.492;12.134;2023-07-24T00:22:04;96874.63;;;23.69;39.40
20160;BME280;50187;50.492;12.134;2023-07-24T00:24:32;96877.53;;;23.74;39.33
20160;BME280;50187;50.492;12.134;2023-07-24T00:26:58;96876.94;;;23.72;39.45
20160;BME280;50187;50.492;12.134;2023-07-24T00:29:25;96880.91;;;23.76;39.50
20160;BME280;50187;50.492;12.134;2023-07-24T00:31:51;96871.28;;;23.74;39.38
20160;BME280;50187;50.492;12.134;2023-07-24T00:34:18;96862.69;;;23.70;39.46
20160;BME280;50187;50.492;12.134;2023-07-24T00:36:44;96856.59;;;23.61;39.51
20160;BME280;50187;50.492;12.134;2023-07-24T00:39:14;96867.09;;;23.71;39.55
20160;BME280;50187;50.492;12.134;2023-07-24T00:41:43;96875.00;;;23.66;39.49
20160;BME280;50187;50.492;12.134;2023-07-24T00:44:10;96855.41;;;23.71;39.70
20160;BME280;50187;50.492;12.134;2023-07-24T00:46:37;96853.09;;;23.74;39.56
20160;BME280;50187;50.492;12.134;2023-07-24T00:49:04;96842.88;;;23.70;39.40
20160;BME280;50187;50.492;12.134;2023-07-24T00:51:32;96858.53;;;23.74;39.53
20160;BME280;50187;50.492;12.134;2023-07-24T00:54:02;96854.34;;;23.72;39.60
20160;BME280;50187;50.492;12.134;2023-07-24T00:56:30;96867.53;;;23.75;39.71
20160;BME280;50187;50.492;12.134;2023-07-24T00:58:59;96862.13;;;23.75;39.49
20160;BME280;50187;50.492;12.134;2023-07-24T01:01:26;96865.63;;;23.69;39.79
20160;BME280;50187;50.492;12.134;2023-07-24T01:03:52;96872.97;;;23.75;39.46
20160;BME280;50187;50.492;12.134;2023-07-24T01:06:19;96869.38;;;23.67;39.45
20160;BME280;50187;50.492;12.134;2023-07-24T01:08:46;96871.28;;;23.74;39.72
20160;BME280;50187;50.492;12.134;2023-07-24T01:11:19;96872.06;;;23.67;39.54
20160;BME280;50187;50.492;12.134;2023-07-24T01:14:04;96873.13;;;23.66;39.51
20160;BME280;50187;50.492;12.134;2023-07-24T01:16:37;96881.94;;;23.75;39.71
20160;BME280;50187;50.492;12.134;2023-07-24T01:19:12;96876.47;;;23.69;39.79
20160;BME280;50187;50.492;12.134;2023-07-24T01:21:49;96885.69;;;23.74;39.53
20160;BME280;50187;50.492;12.134;2023-07-24T01:24:33;96882.56;;;23.71;39.55
20160;BME280;50187;50.492;12.134;2023-07-24T01:27:03;96872.06;;;23.67;39.50
20160;BME280;50187;50.492;12.134;2023-07-24T01:29:30;96867.47;;;23.61;39.65
20160;BME280;50187;50.492;12.134;2023-07-24T01:31:57;96844.94;;;23.61;39.79
20160;BME280;50187;50.492;12.134;2023-07-24T01:34:23;96865.63;;;23.69;39.49
20160;BME280;50187;50.492;12.134;2023-07-24T01:36:50;96860.19;;;23.69;39.68
20160;BME280;50187;50.492;12.134;2023-07-24T01:39:18;96867.91;;;23.72;39.77
20160;BME280;50187;50.492;12.134;2023-07-24T01:41:47;96867.72;;;23.66;39.75
20160;BME280;50187;50.492;12.134;2023-07-24T01:44:13;96873.75;;;23.69;39.66
20160;BME280;50187;50.492;12.134;2023-07-24T01:46:40;96871.28;;;23.74;39.60
20160;BME280;50187;50.492;12.134;2023-07-24T01:49:07;96857.88;;;23.65;39.55
20160;BME280;50187;50.492;12.134;2023-07-24T01:51:34;96874.78;;;23.61;39.63
20160;BME280;50187;50.492;12.134;2023-07-24T01:54:00;96833.22;;;23.60;39.52
20160;BME280;50187;50.492;12.134;2023-07-24T01:56:27;96836.56;;;23.62;39.50
20160;BME280;50187;50.492;12.134;2023-07-24T01:58:54;96843.91;;;23.69;39.80
20160;BME280;50187;50.492;12.134;2023-07-24T02:01:20;96827.41;;;23.63;39.80
20160;BME280;50187;50.492;12.134;2023-07-24T02:03:47;96838.47;;;23.69;39.64
20160;BME280;50187;50.492;12.134;2023-07-24T02:06:14;96817.78;;;23.67;39.82
20160;BME280;50187;50.492;12.134;2023-07-24T02:08:40;96834.06;;;23.67;39.76
20160;BME280;50187;50.492;12.134;2023-07-24T02:11:08;96829.50;;;23.68;39.78
20160;BME280;50187;50.492;12.134;2023-07-24T02:13:35;96819.25;;;23.70;39.64
20160;BME280;50187;50.492;12.134;2023-07-24T02:16:02;96818.56;;;23.48;39.80
20160;BME280;50187;50.492;12.134;2023-07-24T02:18:28;96821.72;;;23.58;39.67
20160;BME280;50187;50.492;12.134;2023-07-24T02:20:55;96806.50;;;23.64;39.58
20160;BME280;50187;50.492;12.134;2023-07-24T02:23:23;96807.53;;;23.63;39.90
20160;BME280;50187;50.492;12.134;2023-07-24T02:25:51;96820.50;;;23.67;39.56
20160;BME280;50187;50.492;12.134;2023-07-24T02:28:18;96810.91;;;23.65;39.81
20160;BME280;50187;50.492;12.134;2023-07-24T02:30:46;96806.09;;;23.67;39.64
20160;BME280;50187;50.492;12.134;2023-07-24T02:33:14;96811.97;;;23.71;39.85
20160;BME280;50187;50.492;12.134;2023-07-24T02:35:41;96791.03;;;23.64;39.64
20160;BME280;50187;50.492;12.134;2023-07-24T02:38:08;96808.81;;;23.67;39.84
20160;BME280;50187;50.492;12.134;2023-07-24T02:40:35;96797.94;;;23.67;39.65
20160;BME280;50187;50.492;12.134;2023-07-24T02:43:04;96796.06;;;23.67;39.87
20160;BME280;50187;50.492;12.134;2023-07-24T02:45:34;96796.50;;;23.71;39.80
20160;BME280;50187;50.492;12.134;2023-07-24T02:48:01;96795.22;;;23.67;39.68
20160;BME280;50187;50.492;12.134;2023-07-24T02:50:29;96806.09;;;23.67;39.68
20160;BME280;50187;50.492;12.134;2023-07-24T02:52:56;96807.97;;;23.66;39.86
20160;BME280;50187;50.492;12.134;2023-07-24T02:55:22;96815.50;;;23.71;39.70
20160;BME280;50187;50.492;12.134;2023-07-24T02:57:50;96808.19;;;23.72;39.89
20160;BME280;50187;50.492;12.134;2023-07-24T03:00:17;96806.53;;;23.71;39.74
20160;BME280;50187;50.492;12.134;2023-07-24T03:02:43;96786.47;;;23.65;39.61
20160;BME280;50187;50.492;12.134;2023-07-24T03:05:10;96800.44;;;23.69;39.63
20160;BME280;50187;50.492;12.134;2023-07-24T03:07:37;96783.97;;;23.63;39.73
20160;BME280;50187;50.492;12.134;2023-07-24T03:10:04;96791.69;;;23.66;39.69
20160;BME280;50187;50.492;12.134;2023-07-24T03:12:31;96785.84;;;23.70;39.75
20160;BME280;50187;50.492;12.134;2023-07-24T03:14:57;96775.81;;;23.63;39.68
20160;BME280;50187;50.492;12.134;2023-07-24T03:17:24;96778.13;;;23.66;39.70
20160;BME280;50187;50.492;12.134;2023-07-24T03:19:50;96772.25;;;23.63;39.78
20160;BME280;50187;50.492;12.134;2023-07-24T03:22:17;96776.00;;;23.69;39.69
20160;BME280;50187;50.492;12.134;2023-07-24T03:24:43;96764.53;;;23.66;39.74
20160;BME280;50187;50.492;12.134;2023-07-24T03:27:10;96767.88;;;23.69;39.77
20160;BME280;50187;50.492;12.134;2023-07-24T03:29:38;96769.97;;;23.66;39.72
20160;BME280;50187;50.492;12.134;2023-07-24T03:32:05;96761.81;;;23.66;39.93
20160;BME280;50187;50.492;12.134;2023-07-24T03:34:32;96763.47;;;23.67;40.03
20160;BME280;50187;50.492;12.134;2023-07-24T03:36:59;96781.66;;;23.67;39.79
20160;BME280;50187;50.492;12.134;2023-07-24T03:39:26;96766.19;;;23.67;40.00
20160;BME280;50187;50.492;12.134;2023-07-24T03:41:52;96768.06;;;23.67;39.99
20160;BME280;50187;50.492;12.134;2023-07-24T03:44:19;96761.63;;;23.68;39.79
20160;BME280;50187;50.492;12.134;2023-07-24T03:46:46;96771.00;;;23.65;40.11
20160;BME280;50187;50.492;12.134;2023-07-24T03:49:12;96761.63;;;23.68;39.98
20160;BME280;50187;50.492;12.134;2023-07-24T03:51:39;96759.94;;;23.67;39.80
20160;BME280;50187;50.492;12.134;2023-07-24T03:54:05;96762.25;;;23.63;39.74
20160;BME280;50187;50.492;12.134;2023-07-24T03:56:32;96763.47;;;23.67;39.97
20160;BME280;50187;50.492;12.134;2023-07-24T03:58:58;96770.59;;;23.69;39.79
20160;BME280;50187;50.492;12.134;2023-07-24T04:01:25;96764.31;;;23.68;39.79
20160;BME280;50187;50.492;12.134;2023-07-24T04:03:52;96763.47;;;23.67;39.77
20160;BME280;50187;50.492;12.134;2023-07-24T04:06:19;96758.88;;;23.61;39.94
20160;BME280;50187;50.492;12.134;2023-07-24T04:08:45;96762.44;;;23.69;39.78
20160;BME280;50187;50.492;12.134;2023-07-24T04:11:12;96763.47;;;23.67;40.04
20160;BME280;50187;50.492;12.134;2023-07-24T04:13:38;96765.56;;;23.65;39.99
20160;BME280;50187;50.492;12.134;2023-07-24T04:16:05;96763.47;;;23.67;39.92
20160;BME280;50187;50.492;12.134;2023-07-24T04:18:32;96771.00;;;23.65;40.02
20160;BME280;50187;50.492;12.134;2023-07-24T04:20:58;96765.38;;;23.67;39.87
20160;BME280;50187;50.492;12.134;2023-07-24T04:23:25;96769.31;;;23.64;39.84
20160;BME280;50187;50.492;12.134;2023-07-24T04:25:51;96758.25;;;23.66;39.83
20160;BME280;50187;50.492;12.134;2023-07-24T04:28:18;96758.91;;;23.68;39.88
20160;BME280;50187;50.492;12.134;2023-07-24T04:30:44;96762.84;;;23.65;40.07
20160;BME280;50187;50.492;12.134;2023-07-24T04:33:11;96768.28;;;23.65;40.12
20160;BME280;50187;50.492;12.134;2023-07-24T04:35:37;96769.97;;;23.66;39.92
20160;BME280;50187;50.492;12.134;2023-07-24T04:38:04;96773.50;;;23.67;40.00
20160;BME280;50187;50.492;12.134;2023-07-24T04:40:31;96774.34;;;23.67;40.11
20160;BME280;50187;50.492;12.134;2023-07-24T04:42:57;96769.97;;;23.66;40.18
20160;BME280;50187;50.492;12.134;2023-07-24T04:45:24;96763.88;;;23.64;39.93
20160;BME280;50187;50.492;12.134;2023-07-24T04:47:51;96772.69;;;23.66;40.00
20160;BME280;50187;50.492;12.134;2023-07-24T04:50:17;96775.59;;;23.65;40.06
20160;BME280;50187;50.492;12.134;2023-07-24T04:52:44;96770.19;;;23.65;40.13
20160;BME280;50187;50.492;12.134;2023-07-24T04:55:10;96768.28;;;23.65;40.01
20160;BME280;50187;50.492;12.134;2023-07-24T04:57:37;96765.56;;;23.65;39.99
20160;BME280;50187;50.492;12.134;2023-07-24T05:00:04;96771.81;;;23.66;39.90
20160;BME280;50187;50.492;12.134;2023-07-24T05:02:31;96769.31;;;23.64;39.94
20160;BME280;50187;50.492;12.134;2023-07-24T05:04:57;96769.97;;;23.66;39.93
20160;BME280;50187;50.492;12.134;2023-07-24T05:07:24;96770.19;;;23.65;40.09
20160;BME280;50187;50.492;12.134;2023-07-24T05:09:51;96763.88;;;23.64;40.17
20160;BME280;50187;50.492;12.134;2023-07-24T05:12:17;96759.72;;;23.69;40.17
20160;BME280;50187;50.492;12.134;2023-07-24T05:14:44;96759.94;;;23.67;40.24
20160;BME280;50187;50.492;12.134;2023-07-24T05:17:10;96764.13;;;23.70;40.03
20160;BME280;50187;50.492;12.134;2023-07-24T05:19:37;96785.84;;;23.70;39.94
20160;BME280;50187;50.492;12.134;2023-07-24T05:22:03;96757.00;;;23.69;40.13
20160;BME280;50187;50.492;12.134;2023-07-24T05:24:30;96755.13;;;23.62;40.11
20160;BME280;50187;50.492;12.134;2023-07-24T05:26:56;96754.28;;;23.69;40.00
20160;BME280;50187;50.492;12.134;2023-07-24T05:29:23;96749.91;;;23.67;39.83
20160;BME280;50187;50.492;12.134;2023-07-24T05:31:50;96766.84;;;23.70;40.03
20160;BME280;50187;50.492;12.134;2023-07-24T05:34:16;96753.69;;;23.66;40.01
20160;BME280;50187;50.492;12.134;2023-07-24T05:36:43;96749.72;;;23.69;39.92
20160;BME280;50187;50.492;12.134;2023-07-24T05:39:10;96746.97;;;23.62;40.58
20160;BME280;50187;50.492;12.134;2023-07-24T05:41:36;96753.84;;;23.52;41.40
20160;BME280;50187;50.492;12.134;2023-07-24T05:44:06;96744.19;;;23.36;42.30
20160;BME280;50187;50.492;12.134;2023-07-24T05:46:32;96751.69;;;23.33;42.80
20160;BME280;50187;50.492;12.134;2023-07-24T05:48:59;96744.16;;;23.29;42.89
20160;BME280;50187;50.492;12.134;2023-07-24T05:51:29;96734.34;;;23.21;43.42
20160;BME280;50187;50.492;12.134;2023-07-24T05:53:56;96732.84;;;23.19;43.75
20160;BME280;50187;50.492;12.134;2023-07-24T05:56:22;96737.41;;;23.18;43.82
20160;BME280;50187;50.492;12.134;2023-07-24T05:58:49;96745.34;;;23.13;44.50
20160;BME280;50187;50.492;12.134;2023-07-24T06:01:16;96746.19;;;23.13;44.77
20160;BME280;50187;50.492;12.134;2023-07-24T06:03:43;96722.41;;;23.15;45.04
20160;BME280;50187;50.492;12.134;2023-07-24T06:06:09;96717.38;;;23.12;45.18
20160;BME280;50187;50.492;12.134;2023-07-24T06:08:36;96708.00;;;23.15;45.21
20160;BME280;50187;50.492;12.134;2023-07-24T06:11:02;96693.13;;;23.11;45.14
20160;BME280;50187;50.492;12.134;2023-07-24T06:13:29;96687.72;;;23.11;45.48
20160;BME280;50187;50.492;12.134;2023-07-24T06:15:55;96674.81;;;23.13;45.34
20160;BME280;50187;50.492;12.134;2023-07-24T06:18:22;96685.25;;;23.16;45.72
20160;BME280;50187;50.492;12.134;2023-07-24T06:20:52;96679.19;;;23.14;45.80
20160;BME280;50187;50.492;12.134;2023-07-24T06:23:19;96708.00;;;23.15;45.86
20160;BME280;50187;50.492;12.134;2023-07-24T06:25:46;96685.50;;;23.21;45.62
20160;BME280;50187;50.492;12.134;2023-07-24T06:28:12;96701.75;;;23.14;45.65
20160;BME280;50187;50.492;12.134;2023-07-24T06:30:39;96689.03;;;23.22;45.83
20160;BME280;50187;50.492;12.134;2023-07-24T06:33:05;96707.00;;;23.23;45.67
20160;BME280;50187;50.492;12.134;2023-07-24T06:35:32;96701.41;;;23.31;45.92
20160;BME280;50187;50.492;12.134;2023-07-24T06:37:59;96700.34;;;23.25;46.09
20160;BME280;50187;50.492;12.134;2023-07-24T06:40:25;96691.34;;;23.25;45.82
20160;BME280;50187;50.492;12.134;2023-07-24T06:42:52;96697.63;;;23.25;45.51
20160;BME280;50187;50.492;12.134;2023-07-24T06:45:19;96695.53;;;23.27;45.36
20160;BME280;50187;50.492;12.134;2023-07-24T06:47:46;96695.09;;;23.30;45.11
20160;BME280;50187;50.492;12.134;2023-07-24T06:50:12;96696.38;;;23.35;44.89
20160;BME280;50187;50.492;12.134;2023-07-24T06:52:39;96686.16;;;23.43;44.50
20160;BME280;50187;50.492;12.134;2023-07-24T06:55:05;96686.59;;;23.47;44.63
20160;BME280;50187;50.492;12.134;2023-07-24T06:57:32;96686.19;;;23.50;44.43
20160;BME280;50187;50.492;12.134;2023-07-24T06:59:59;96691.84;;;23.55;44.13
20160;BME280;50187;50.492;12.134;2023-07-24T07:02:25;96687.03;;;23.57;44.04
20160;BME280;50187;50.492;12.134;2023-07-24T07:04:52;96688.72;;;23.58;43.90
20160;BME280;50187;50.492;12.134;2023-07-24T07:07:18;96675.75;;;23.54;44.19
20160;BME280;50187;50.492;12.134;2023-07-24T07:09:45;96682.66;;;23.63;44.15
20160;BME280;50187;50.492;12.134;2023-07-24T07:12:12;96697.91;;;23.64;44.38
20160;BME280;50187;50.492;12.134;2023-07-24T07:14:38;96680.16;;;23.68;44.15
20160;BME280;50187;50.492;12.134;2023-07-24T07:17:05;96672.03;;;23.68;44.25
20160;BME280;50187;50.492;12.134;2023-07-24T07:19:31;96667.63;;;23.74;44.63
20160;BME280;50187;50.492;12.134;2023-07-24T07:21:58;96673.69;;;23.76;44.57
20160;BME280;50187;50.492;12.134;2023-07-24T07:24:25;96662.81;;;23.76;44.65
20160;BME280;50187;50.492;12.134;2023-07-24T07:26:52;96671.19;;;23.81;44.79
20160;BME280;50187;50.492;12.134;2023-07-24T07:29:18;96674.53;;;23.83;44.97
20160;BME280;50187;50.492;12.134;2023-07-24T07:31:45;96672.06;;;23.88;44.84
20160;BME280;50187;50.492;12.134;2023-07-24T07:34:11;96670.16;;;23.82;44.77
20160;BME280;50187;50.492;12.134;2023-07-24T07:36:38;96664.50;;;23.83;45.13
20160;BME280;50187;50.492;12.134;2023-07-24T07:39:04;96666.81;;;23.87;45.27
20160;BME280;50187;50.492;12.134;2023-07-24T07:41:31;96657.84;;;23.86;44.73
20160;BME280;50187;50.492;12.134;2023-07-24T07:43:58;96653.22;;;23.87;44.59
20160;BME280;50187;50.492;12.134;2023-07-24T07:46:24;96639.84;;;23.85;44.63
20160;BME280;50187;50.492;12.134;2023-07-24T07:48:52;96637.19;;;23.92;44.12
20160;BME280;50187;50.492;12.134;2023-07-24T07:51:18;96625.25;;;23.93;43.98
20160;BME280;50187;50.492;12.134;2023-07-24T07:53:45;96624.84;;;23.96;43.80
20160;BME280;50187;50.492;12.134;2023-07-24T07:56:11;96627.97;;;23.99;43.88
20160;BME280;50187;50.492;12.134;2023-07-24T07:58:38;96618.56;;;24.02;43.78
20160;BME280;50187;50.492;12.134;2023-07-24T08:01:05;96621.91;;;24.04;43.64
20160;BME280;50187;50.492;12.134;2023-07-24T08:03:32;96629.84;;;24.06;43.58
20160;BME280;50187;50.492;12.134;2023-07-24T08:05:59;96627.97;;;24.06;43.60
20160;BME280;50187;50.492;12.134;2023-07-24T08:08:26;96612.28;;;24.08;43.46
20160;BME280;50187;50.492;12.134;2023-07-24T08:10:52;96608.31;;;24.11;43.54
20160;BME280;50187;50.492;12.134;2023-07-24T08:13:19;96593.91;;;24.10;43.31
20160;BME280;50187;50.492;12.134;2023-07-24T08:15:46;96595.97;;;24.15;43.14
20160;BME280;50187;50.492;12.134;2023-07-24T08:18:12;96600.16;;;24.11;43.19
20160;BME280;50187;50.492;12.134;2023-07-24T08:20:39;96627.09;;;24.19;43.35
20160;BME280;50187;50.492;12.134;2023-07-24T08:23:06;96632.53;;;24.19;42.90
20160;BME280;50187;50.492;12.134;2023-07-24T08:25:33;96630.44;;;24.21;43.12
20160;BME280;50187;50.492;12.134;2023-07-24T08:27:59;96636.09;;;24.20;43.09
20160;BME280;50187;50.492;12.134;2023-07-24T08:30:32;96637.16;;;24.18;42.91
20160;BME280;50187;50.492;12.134;2023-07-24T08:32:59;96638.19;;;24.17;42.82
20160;BME280;50187;50.492;12.134;2023-07-24T08:35:26;96633.19;;;24.14;42.67
20160;BME280;50187;50.492;12.134;2023-07-24T08:37:53;96647.59;;;24.15;42.67
20160;BME280;50187;50.492;12.134;2023-07-24T08:40:20;96644.47;;;24.11;42.95
20160;BME280;50187;50.492;12.134;2023-07-24T08:42:49;96645.09;;;24.13;42.59
20160;BME280;50187;50.492;12.134;2023-07-24T08:45:17;96639.22;;;24.10;42.91
20160;BME280;50187;50.492;12.134;2023-07-24T08:47:44;96631.09;;;24.10;42.93
20160;BME280;50187;50.492;12.134;2023-07-24T08:50:12;96629.81;;;24.12;42.68
20160;BME280;50187;50.492;12.134;2023-07-24T08:52:39;96628.19;;;24.11;42.87
20160;BME280;50187;50.492;12.134;2023-07-24T08:55:06;96622.75;;;24.11;42.77
20160;BME280;50187;50.492;12.134;2023-07-24T08:57:34;96632.16;;;24.09;42.44
20160;BME280;50187;50.492;12.134;2023-07-24T09:00:02;96637.38;;;24.10;42.67
20160;BME280;50187;50.492;12.134;2023-07-24T09:02:35;96628.56;;;24.08;42.71
20160;BME280;50187;50.492;12.134;2023-07-24T09:05:02;96622.53;;;24.06;42.55
20160;BME280;50187;50.492;12.134;2023-07-24T09:07:30;96623.16;;;24.08;42.74
20160;BME280;50187;50.492;12.134;2023-07-24T09:09:58;96629.66;;;24.07;42.51
20160;BME280;50187;50.492;12.134;2023-07-24T09:12:25;96625.88;;;24.08;42.39
20160;BME280;50187;50.492;12.134;2023-07-24T09:15:05;96619.38;;;24.09;42.30
20160;BME280;50187;50.492;12.134;2023-07-24T09:17:33;96619.19;;;24.11;42.57
20160;BME280;50187;50.492;12.134;2023-07-24T09:20:00;96624.63;;;24.11;42.34
20160;BME280;50187;50.492;12.134;2023-07-24T09:22:28;96619.59;;;24.08;42.28
20160;BME280;50187;50.492;12.134;2023-07-24T09:24:57;96619.19;;;24.11;42.21
20160;BME280;50187;50.492;12.134;2023-07-24T09:27:28;96628.38;;;24.10;42.37
20160;BME280;50187;50.492;12.134;2023-07-24T09:29:57;96621.06;;;24.10;42.26
20160;BME280;50187;50.492;12.134;2023-07-24T09:32:25;96623.34;;;24.07;42.35
20160;BME280;50187;50.492;12.134;2023-07-24T09:34:53;96613.97;;;24.09;42.16
20160;BME280;50187;50.492;12.134;2023-07-24T09:37:28;96601.19;;;24.10;42.40
20160;BME280;50187;50.492;12.134;2023-07-24T09:39:54;96595.16;;;24.08;42.33
20160;BME280;50187;50.492;12.134;2023-07-24T09:42:34;96582.19;;;24.10;42.20
20160;BME280;50187;50.492;12.134;2023-07-24T09:45:10;96581.78;;;24.06;42.18
20160;BME280;50187;50.492;12.134;2023-07-24T09:47:39;96594.72;;;24.11;42.43
20160;BME280;50187;50.492;12.134;2023-07-24T09:50:08;96580.94;;;24.12;42.59
20160;BME280;50187;50.492;12.134;2023-07-24T09:52:36;96570.91;;;24.13;42.53
20160;BME280;50187;50.492;12.134;2023-07-24T09:55:19;96576.13;;;24.14;42.36
20160;BME280;50187;50.492;12.134;2023-07-24T09:57:48;96560.44;;;24.23;42.47
20160;BME280;50187;50.492;12.134;2023-07-24T10:00:16;96558.94;;;24.27;42.52
20160;BME280;50187;50.492;12.134;2023-07-24T10:02:44;96561.88;;;24.32;42.18
20160;BME280;50187;50.492;12.134;2023-07-24T10:05:11;96568.34;;;24.38;42.41
20160;BME280;50187;50.492;12.134;2023-07-24T10:07:38;96557.25;;;24.40;42.11
20160;BME280;50187;50.492;12.134;2023-07-24T10:10:05;96559.53;;;24.43;42.18
20160;BME280;50187;50.492;12.134;2023-07-24T10:12:33;96556.38;;;24.46;42.12
20160;BME280;50187;50.492;12.134;2023-07-24T10:15:01;96565.34;;;24.46;42.20
20160;BME280;50187;50.492;12.134;2023-07-24T10:17:38;96558.44;;;24.50;42.05
20160;BME280;50187;50.492;12.134;2023-07-24T10:20:06;96546.94;;;24.55;42.03
20160;BME280;50187;50.492;12.134;2023-07-24T10:22:36;96551.72;;;24.60;41.87
20160;BME280;50187;50.492;12.134;2023-07-24T10:25:09;96547.78;;;24.62;41.79
20160;BME280;50187;50.492;12.134;2023-07-24T10:27:36;96548.16;;;24.66;41.79
20160;BME280;50187;50.492;12.134;2023-07-24T10:30:06;96555.28;;;24.67;41.88
20160;BME280;50187;50.492;12.134;2023-07-24T10:32:53;96554.22;;;24.68;41.88
20160;BME280;50187;50.492;12.134;2023-07-24T10:35:22;96566.16;;;24.67;41.62
20160;BME280;50187;50.492;12.134;2023-07-24T10:37:58;96590.22;;;24.63;41.70
20160;BME280;50187;50.492;12.134;2023-07-24T10:40:25;96579.75;;;24.53;41.92
20160;BME280;50187;50.492;12.134;2023-07-24T10:43:01;96656.91;;;24.59;42.08
20160;BME280;50187;50.492;12.134;2023-07-24T10:45:50;96607.34;;;24.57;42.39
20160;BME280;50187;50.492;12.134;2023-07-24T10:48:19;96598.78;;;24.53;42.70
20160;BME280;50187;50.492;12.134;2023-07-24T10:50:48;96612.81;;;24.50;42.23
20160;BME280;50187;50.492;12.134;2023-07-24T10:53:21;96616.78;;;24.48;42.00
20160;BME280;50187;50.492;12.134;2023-07-24T10:55:48;96622.03;;;24.43;42.13
20160;BME280;50187;50.492;12.134;2023-07-24T10:58:14;96622.25;;;24.41;42.20
20160;BME280;50187;50.492;12.134;2023-07-24T11:00:42;96634.38;;;24.39;42.15
20160;BME280;50187;50.492;12.134;2023-07-24T11:03:14;96635.22;;;24.39;41.94
20160;BME280;50187;50.492;12.134;2023-07-24T11:05:42;96633.56;;;24.38;42.16
20160;BME280;50187;50.492;12.134;2023-07-24T11:08:13;96629.81;;;24.32;42.11
20160;BME280;50187;50.492;12.134;2023-07-24T11:13:15;96618.94;;;24.32;42.21
20160;BME280;50187;50.492;12.134;2023-07-24T11:15:42;96635.66;;;24.29;42.26
20160;BME280;50187;50.492;12.134;2023-07-24T11:18:09;96630.22;;;24.29;42.35
20160;BME280;50187;50.492;12.134;2023-07-24T11:20:43;96633.16;;;24.28;42.09
20160;BME280;50187;50.492;12.134;2023-07-24T11:23:10;96628.16;;;24.25;42.02
20160;BME280;50187;50.492;12.134;2023-07-24T11:25:38;96626.25;;;24.25;42.40
20160;BME280;50187;50.492;12.134;2023-07-24T11:28:10;96623.31;;;24.27;42.25
20160;BME280;50187;50.492;12.134;2023-07-24T11:30:37;96606.41;;;24.25;42.04
20160;BME280;50187;50.492;12.134;2023-07-24T11:33:05;96613.91;;;24.29;42.48
20160;BME280;50187;50.492;12.134;2023-07-24T11:35:33;96600.31;;;24.29;42.25
20160;BME280;50187;50.492;12.134;2023-07-24T11:38:02;96596.56;;;24.30;42.26
20160;BME280;50187;50.492;12.134;2023-07-24T11:40:35;96602.63;;;24.32;42.38
20160;BME280;50187;50.492;12.134;2023-07-24T11:43:03;96590.91;;;24.32;42.40
20160;BME280;50187;50.492;12.134;2023-07-24T11:45:30;96597.38;;;24.31;42.29
20160;BME280;50187;50.492;12.134;2023-07-24T11:47:57;96590.91;;;24.32;42.46
20160;BME280;50187;50.492;12.134;2023-07-24T11:50:24;96586.94;;;24.34;42.21
20160;BME280;50187;50.492;12.134;2023-07-24T11:52:51;96586.94;;;24.34;42.30
20160;BME280;50187;50.492;12.134;2023-07-24T11:55:29;96583.41;;;24.34;42.27
20160;BME280;50187;50.492;12.134;2023-07-24T11:58:01;96566.25;;;24.33;42.59
20160;BME280;50187;50.492;12.134;2023-07-24T12:00:32;96568.34;;;24.38;42.35
20160;BME280;50187;50.492;12.134;2023-07-24T12:03:02;96557.66;;;24.37;42.51
20160;BME280;50187;50.492;12.134;2023-07-24T12:05:39;96569.38;;;24.44;42.29
20160;BME280;50187;50.492;12.134;2023-07-24T12:08:06;96556.81;;;24.43;42.67
20160;BME280;50187;50.492;12.134;2023-07-24T12:10:36;96549.47;;;24.43;42.68
20160;BME280;50187;50.492;12.134;2023-07-24T12:13:06;96540.50;;;24.43;42.69
20160;BME280;50187;50.492;12.134;2023-07-24T12:15:33;96548.81;;;24.48;43.07
20160;BME280;50187;50.492;12.134;2023-07-24T12:18:04;96538.59;;;24.50;43.08
20160;BME280;50187;50.492;12.134;2023-07-24T12:20:32;96542.34;;;24.49;42.90
20160;BME280;50187;50.492;12.134;2023-07-24T12:22:58;96537.53;;;24.51;43.01
20160;BME280;50187;50.492;12.134;2023-07-24T12:25:25;96536.69;;;24.50;42.83
20160;BME280;50187;50.492;12.134;2023-07-24T12:27:52;96534.38;;;24.54;43.38
20160;BME280;50187;50.492;12.134;2023-07-24T12:30:19;96536.47;;;24.52;43.20
20160;BME280;50187;50.492;12.134;2023-07-24T12:32:45;96546.31;;;24.53;43.07
20160;BME280;50187;50.492;12.134;2023-07-24T12:35:12;96528.50;;;24.57;43.10
20160;BME280;50187;50.492;12.134;2023-07-24T12:37:42;96525.00;;;24.50;43.34
20160;BME280;50187;50.492;12.134;2023-07-24T12:40:09;96521.41;;;24.56;43.45
20160;BME280;50187;50.492;12.134;2023-07-24T12:42:36;96512.19;;;24.57;43.39
20160;BME280;50187;50.492;12.134;2023-07-24T12:45:03;96518.69;;;24.56;43.20
20160;BME280;50187;50.492;12.134;2023-07-24T12:47:31;96508.44;;;24.58;43.23
20160;BME280;50187;50.492;12.134;2023-07-24T12:49:58;96505.09;;;24.56;43.30
20160;BME280;50187;50.492;12.134;2023-07-24T12:52:26;96487.72;;;24.57;43.27
20160;BME280;50187;50.492;12.134;2023-07-24T12:54:53;96480.03;;;24.54;43.40